ENML/MOL METAR and TAF weather

Enter ICAO airport designator
Station Type Date Time Source
ENML METAR 2019/02/23 02:50 UTC NOAA

ENML 230250Z AUTO 29004KT 230V330 9999NDV OVC048/// 11/05 Q1028


Station Type Date Time Source
ENML Decoded METAR 2019/02/23 02:50 UTC NOAA

Molde / Aro, Norway (ENML) 62-45N 007-16E 3M
Feb 22, 2019 - 09:50 PM EST / 2019.02.23 0250 UTC
Wind: from the WNW (290 degrees) at 5 MPH (4 KT) (direction variable):0
Sky conditions: overcast
Temperature: 51 F (11 C)
Dew Point: 41 F (5 C)
Relative Humidity: 66%
Pressure (altimeter): 30.36 in. Hg (1028 hPa)
ob: ENML 230250Z AUTO 29004KT 230V330 9999NDV OVC048/// 11/05 Q1028
cycle: 3

Station Type Date Time Source
ENML TAF UTC NOAA

Error!


Example: see airport list